Usinsk, Russia
Current Conditions -  °F | °C
As of 7:00 AM on Tuesday 21 Oct 2014 (Local Time) from UUYY Reporting Station
Clear Clear  
Wind Chill: -4°   Ceiling: Unl
Heat Index:   Visibility: 6mi
Dew Point:   Wind: 4mph
Humidity: 85%   Direction: NA
Pressure: 29.83"   Gusts: NA
Location:  65.92°N, 57.41°E
Report Text: UUYY 210400Z VRB02MPS CAVOK M15/M17 Q1010 NOSIG 01CLRD61 RMKQFE748/0998
Loading
Personal Weather Stations






























Interactive Weather Map
Tropical Storm Tracking
New forecast layout! Learn more

10-Day Weather Forecast

Advertisements
Track Severe Weather on mobile